sensor_id;sensor_type;location;lat;lon;timestamp;P1;durP1;ratioP1;P2;durP2;ratioP2
22922;SDS011;11627;51.322;22.816;2023-09-18T00:00:49;11.38;;;10.07;;
22922;SDS011;11627;51.322;22.816;2023-09-18T00:03:17;10.68;;;8.70;;
22922;SDS011;11627;51.322;22.816;2023-09-18T00:05:47;12.70;;;9.35;;
22922;SDS011;11627;51.322;22.816;2023-09-18T00:08:13;13.10;;;9.93;;
22922;SDS011;11627;51.322;22.816;2023-09-18T00:10:40;14.88;;;9.35;;
22922;SDS011;11627;51.322;22.816;2023-09-18T00:13:08;12.07;;;9.40;;
22922;SDS011;11627;51.322;22.816;2023-09-18T00:15:37;12.90;;;9.30;;
22922;SDS011;11627;51.322;22.816;2023-09-18T00:18:03;11.93;;;9.38;;
22922;SDS011;11627;51.322;22.816;2023-09-18T00:20:31;14.93;;;11.20;;
22922;SDS011;11627;51.322;22.816;2023-09-18T00:22:58;15.57;;;9.68;;
22922;SDS011;11627;51.322;22.816;2023-09-18T00:25:25;15.10;;;11.00;;
22922;SDS011;11627;51.322;22.816;2023-09-18T00:27:54;13.63;;;10.27;;
22922;SDS011;11627;51.322;22.816;2023-09-18T00:30:21;12.63;;;9.68;;
22922;SDS011;11627;51.322;22.816;2023-09-18T00:32:49;14.13;;;9.43;;
22922;SDS011;11627;51.322;22.816;2023-09-18T00:35:18;12.88;;;10.15;;
22922;SDS011;11627;51.322;22.816;2023-09-18T00:37:45;12.63;;;9.85;;
22922;SDS011;11627;51.322;22.816;2023-09-18T00:40:11;14.13;;;10.57;;
22922;SDS011;11627;51.322;22.816;2023-09-18T00:42:41;12.70;;;9.68;;
22922;SDS011;11627;51.322;22.816;2023-09-18T00:45:08;14.68;;;10.90;;
22922;SDS011;11627;51.322;22.816;2023-09-18T00:47:36;16.42;;;11.45;;
22922;SDS011;11627;51.322;22.816;2023-09-18T00:50:04;14.82;;;11.25;;
22922;SDS011;11627;51.322;22.816;2023-09-18T00:52:35;14.50;;;10.77;;
22922;SDS011;11627;51.322;22.816;2023-09-18T00:55:07;14.30;;;10.90;;
22922;SDS011;11627;51.322;22.816;2023-09-18T00:57:35;14.07;;;10.40;;
22922;SDS011;11627;51.322;22.816;2023-09-18T01:00:03;16.50;;;11.55;;
22922;SDS011;11627;51.322;22.816;2023-09-18T01:02:31;13.88;;;11.00;;
22922;SDS011;11627;51.322;22.816;2023-09-18T01:04:59;17.42;;;10.85;;
22922;SDS011;11627;51.322;22.816;2023-09-18T01:07:26;14.20;;;10.75;;
22922;SDS011;11627;51.322;22.816;2023-09-18T01:09:55;15.95;;;11.13;;
22922;SDS011;11627;51.322;22.816;2023-09-18T01:15:30;12.55;;;10.00;;
22922;SDS011;11627;51.322;22.816;2023-09-18T01:18:09;12.35;;;10.43;;
22922;SDS011;11627;51.322;22.816;2023-09-18T01:20:36;13.25;;;10.57;;
22922;SDS011;11627;51.322;22.816;2023-09-18T01:23:03;14.60;;;10.95;;
22922;SDS011;11627;51.322;22.816;2023-09-18T01:25:30;15.05;;;10.65;;
22922;SDS011;11627;51.322;22.816;2023-09-18T01:27:59;13.85;;;10.88;;
22922;SDS011;11627;51.322;22.816;2023-09-18T01:30:26;13.63;;;10.82;;
22922;SDS011;11627;51.322;22.816;2023-09-18T01:32:54;14.35;;;10.35;;
22922;SDS011;11627;51.322;22.816;2023-09-18T01:35:23;14.70;;;11.45;;
22922;SDS011;11627;51.322;22.816;2023-09-18T01:37:56;14.88;;;11.10;;
22922;SDS011;11627;51.322;22.816;2023-09-18T01:40:25;13.38;;;10.65;;
22922;SDS011;11627;51.322;22.816;2023-09-18T01:42:53;12.57;;;10.13;;
22922;SDS011;11627;51.322;22.816;2023-09-18T01:45:19;16.80;;;11.05;;
22922;SDS011;11627;51.322;22.816;2023-09-18T01:47:46;13.50;;;10.02;;
22922;SDS011;11627;51.322;22.816;2023-09-18T01:50:13;15.40;;;10.82;;
22922;SDS011;11627;51.322;22.816;2023-09-18T01:52:40;16.08;;;10.98;;
22922;SDS011;11627;51.322;22.816;2023-09-18T01:55:06;14.25;;;11.02;;
22922;SDS011;11627;51.322;22.816;2023-09-18T01:57:34;15.05;;;11.02;;
22922;SDS011;11627;51.322;22.816;2023-09-18T02:00:00;14.15;;;10.52;;
22922;SDS011;11627;51.322;22.816;2023-09-18T02:02:28;16.13;;;11.52;;
22922;SDS011;11627;51.322;22.816;2023-09-18T02:04:56;16.55;;;11.57;;
22922;SDS011;11627;51.322;22.816;2023-09-18T02:07:23;14.88;;;10.20;;
22922;SDS011;11627;51.322;22.816;2023-09-18T02:09:50;18.92;;;11.77;;
22922;SDS011;11627;51.322;22.816;2023-09-18T02:12:18;16.58;;;11.73;;
22922;SDS011;11627;51.322;22.816;2023-09-18T02:14:46;16.77;;;11.68;;
22922;SDS011;11627;51.322;22.816;2023-09-18T02:17:13;17.60;;;12.25;;
22922;SDS011;11627;51.322;22.816;2023-09-18T02:19:40;17.00;;;12.02;;
22922;SDS011;11627;51.322;22.816;2023-09-18T02:22:09;18.42;;;13.05;;
22922;SDS011;11627;51.322;22.816;2023-09-18T02:24:36;16.50;;;11.77;;
22922;SDS011;11627;51.322;22.816;2023-09-18T02:27:07;17.85;;;11.88;;
22922;SDS011;11627;51.322;22.816;2023-09-18T02:29:34;16.55;;;12.55;;
22922;SDS011;11627;51.322;22.816;2023-09-18T02:32:03;14.77;;;11.68;;
22922;SDS011;11627;51.322;22.816;2023-09-18T02:34:30;15.93;;;11.65;;
22922;SDS011;11627;51.322;22.816;2023-09-18T02:36:57;13.77;;;10.85;;
22922;SDS011;11627;51.322;22.816;2023-09-18T02:39:24;15.05;;;11.52;;
22922;SDS011;11627;51.322;22.816;2023-09-18T02:41:51;13.88;;;10.77;;
22922;SDS011;11627;51.322;22.816;2023-09-18T02:44:20;15.95;;;11.48;;
22922;SDS011;11627;51.322;22.816;2023-09-18T02:46:46;18.92;;;11.82;;
22922;SDS011;11627;51.322;22.816;2023-09-18T02:49:14;14.63;;;11.45;;
22922;SDS011;11627;51.322;22.816;2023-09-18T02:51:41;17.83;;;11.23;;
22922;SDS011;11627;51.322;22.816;2023-09-18T02:54:07;14.88;;;10.98;;
22922;SDS011;11627;51.322;22.816;2023-09-18T02:56:33;14.07;;;11.10;;
22922;SDS011;11627;51.322;22.816;2023-09-18T02:59:00;15.77;;;10.57;;
22922;SDS011;11627;51.322;22.816;2023-09-18T03:01:27;12.93;;;10.70;;
22922;SDS011;11627;51.322;22.816;2023-09-18T03:03:54;16.60;;;10.88;;
22922;SDS011;11627;51.322;22.816;2023-09-18T03:06:22;17.58;;;11.27;;
22922;SDS011;11627;51.322;22.816;2023-09-18T03:08:49;16.08;;;11.50;;
22922;SDS011;11627;51.322;22.816;2023-09-18T03:11:16;16.85;;;12.02;;
22922;SDS011;11627;51.322;22.816;2023-09-18T03:13:44;15.93;;;11.20;;
22922;SDS011;11627;51.322;22.816;2023-09-18T03:16:13;17.33;;;12.10;;
22922;SDS011;11627;51.322;22.816;2023-09-18T03:18:40;19.55;;;11.48;;
22922;SDS011;11627;51.322;22.816;2023-09-18T03:21:07;20.70;;;10.98;;
22922;SDS011;11627;51.322;22.816;2023-09-18T03:23:35;17.15;;;11.93;;
22922;SDS011;11627;51.322;22.816;2023-09-18T03:26:01;15.65;;;11.82;;
22922;SDS011;11627;51.322;22.816;2023-09-18T03:28:29;18.05;;;11.05;;
22922;SDS011;11627;51.322;22.816;2023-09-18T03:30:57;18.35;;;11.82;;
22922;SDS011;11627;51.322;22.816;2023-09-18T03:33:23;19.58;;;11.60;;
22922;SDS011;11627;51.322;22.816;2023-09-18T03:35:52;23.75;;;12.07;;
22922;SDS011;11627;51.322;22.816;2023-09-18T03:38:20;13.73;;;11.13;;
22922;SDS011;11627;51.322;22.816;2023-09-18T03:40:47;17.70;;;10.45;;
22922;SDS011;11627;51.322;22.816;2023-09-18T03:43:14;12.75;;;10.10;;
22922;SDS011;11627;51.322;22.816;2023-09-18T03:45:42;12.95;;;10.30;;
22922;SDS011;11627;51.322;22.816;2023-09-18T03:48:10;15.90;;;9.82;;
22922;SDS011;11627;51.322;22.816;2023-09-18T03:50:37;14.50;;;10.10;;
22922;SDS011;11627;51.322;22.816;2023-09-18T03:53:05;13.20;;;10.38;;
22922;SDS011;11627;51.322;22.816;2023-09-18T03:55:32;14.82;;;9.75;;
22922;SDS011;11627;51.322;22.816;2023-09-18T03:57:59;16.67;;;10.68;;
22922;SDS011;11627;51.322;22.816;2023-09-18T04:00:26;15.63;;;10.38;;
22922;SDS011;11627;51.322;22.816;2023-09-18T04:02:53;13.43;;;10.02;;
22922;SDS011;11627;51.322;22.816;2023-09-18T04:05:22;19.00;;;11.05;;
22922;SDS011;11627;51.322;22.816;2023-09-18T04:07:49;12.32;;;9.93;;
22922;SDS011;11627;51.322;22.816;2023-09-18T04:10:16;13.60;;;10.15;;
22922;SDS011;11627;51.322;22.816;2023-09-18T04:12:50;15.20;;;10.93;;
22922;SDS011;11627;51.322;22.816;2023-09-18T04:15:16;14.65;;;11.32;;
22922;SDS011;11627;51.322;22.816;2023-09-18T04:17:44;17.50;;;11.07;;
22922;SDS011;11627;51.322;22.816;2023-09-18T04:20:11;14.35;;;10.27;;
22922;SDS011;11627;51.322;22.816;2023-09-18T04:22:43;20.80;;;11.20;;
22922;SDS011;11627;51.322;22.816;2023-09-18T04:25:16;16.23;;;10.40;;
22922;SDS011;11627;51.322;22.816;2023-09-18T04:27:45;16.17;;;10.73;;
22922;SDS011;11627;51.322;22.816;2023-09-18T04:30:11;14.50;;;10.05;;
22922;SDS011;11627;51.322;22.816;2023-09-18T04:32:41;14.07;;;10.73;;
22922;SDS011;11627;51.322;22.816;2023-09-18T04:35:09;14.82;;;10.93;;
22922;SDS011;11627;51.322;22.816;2023-09-18T04:37:37;14.60;;;10.60;;
22922;SDS011;11627;51.322;22.816;2023-09-18T04:40:04;17.58;;;10.75;;
22922;SDS011;11627;51.322;22.816;2023-09-18T04:42:38;13.00;;;10.32;;
22922;SDS011;11627;51.322;22.816;2023-09-18T04:45:07;13.85;;;10.68;;
22922;SDS011;11627;51.322;22.816;2023-09-18T04:47:36;14.60;;;10.70;;
22922;SDS011;11627;51.322;22.816;2023-09-18T04:50:03;14.68;;;9.65;;
22922;SDS011;11627;51.322;22.816;2023-09-18T04:52:35;15.55;;;11.10;;
22922;SDS011;11627;51.322;22.816;2023-09-18T04:55:02;16.67;;;10.85;;
22922;SDS011;11627;51.322;22.816;2023-09-18T04:57:32;16.52;;;10.98;;
22922;SDS011;11627;51.322;22.816;2023-09-18T05:00:00;13.52;;;10.73;;
22922;SDS011;11627;51.322;22.816;2023-09-18T05:02:28;15.15;;;10.80;;
22922;SDS011;11627;51.322;22.816;2023-09-18T05:04:56;14.35;;;11.32;;
22922;SDS011;11627;51.322;22.816;2023-09-18T05:07:23;14.13;;;10.18;;
22922;SDS011;11627;51.322;22.816;2023-09-18T05:09:49;14.13;;;10.95;;
22922;SDS011;11627;51.322;22.816;2023-09-18T05:12:16;13.40;;;11.15;;
22922;SDS011;11627;51.322;22.816;2023-09-18T05:14:44;15.40;;;11.82;;
22922;SDS011;11627;51.322;22.816;2023-09-18T05:17:14;17.83;;;12.07;;
22922;SDS011;11627;51.322;22.816;2023-09-18T05:19:43;16.13;;;11.55;;
22922;SDS011;11627;51.322;22.816;2023-09-18T05:22:10;16.23;;;11.52;;
22922;SDS011;11627;51.322;22.816;2023-09-18T05:24:39;17.65;;;11.40;;
22922;SDS011;11627;51.322;22.816;2023-09-18T05:27:06;18.23;;;11.48;;
22922;SDS011;11627;51.322;22.816;2023-09-18T05:29:34;16.38;;;11.43;;
22922;SDS011;11627;51.322;22.816;2023-09-18T05:32:04;23.42;;;12.30;;
22922;SDS011;11627;51.322;22.816;2023-09-18T05:34:30;19.40;;;11.60;;
22922;SDS011;11627;51.322;22.816;2023-09-18T05:36:57;17.02;;;11.35;;
22922;SDS011;11627;51.322;22.816;2023-09-18T05:39:26;15.20;;;11.25;;
22922;SDS011;11627;51.322;22.816;2023-09-18T05:41:53;15.63;;;11.73;;
22922;SDS011;11627;51.322;22.816;2023-09-18T05:44:20;16.90;;;11.95;;
22922;SDS011;11627;51.322;22.816;2023-09-18T05:46:47;15.05;;;11.25;;
22922;SDS011;11627;51.322;22.816;2023-09-18T05:49:14;14.30;;;11.20;;
22922;SDS011;11627;51.322;22.816;2023-09-18T05:51:41;15.90;;;12.00;;
22922;SDS011;11627;51.322;22.816;2023-09-18T05:54:08;20.13;;;15.65;;
22922;SDS011;11627;51.322;22.816;2023-09-18T05:56:38;20.02;;;16.40;;
22922;SDS011;11627;51.322;22.816;2023-09-18T05:59:04;23.63;;;17.65;;
22922;SDS011;11627;51.322;22.816;2023-09-18T06:01:32;21.40;;;16.80;;
22922;SDS011;11627;51.322;22.816;2023-09-18T06:04:00;30.35;;;23.63;;
22922;SDS011;11627;51.322;22.816;2023-09-18T06:06:30;45.40;;;35.85;;
22922;SDS011;11627;51.322;22.816;2023-09-18T06:08:56;35.55;;;27.60;;
22922;SDS011;11627;51.322;22.816;2023-09-18T06:11:24;24.52;;;19.50;;
22922;SDS011;11627;51.322;22.816;2023-09-18T06:13:50;21.63;;;18.05;;
22922;SDS011;11627;51.322;22.816;2023-09-18T06:16:19;36.92;;;27.75;;
22922;SDS011;11627;51.322;22.816;2023-09-18T06:18:45;35.58;;;26.90;;
22922;SDS011;11627;51.322;22.816;2023-09-18T06:21:12;30.15;;;22.88;;
22922;SDS011;11627;51.322;22.816;2023-09-18T06:23:39;26.13;;;20.23;;
22922;SDS011;11627;51.322;22.816;2023-09-18T06:26:06;27.02;;;21.52;;
22922;SDS011;11627;51.322;22.816;2023-09-18T06:28:33;56.85;;;35.28;;
22922;SDS011;11627;51.322;22.816;2023-09-18T06:31:00;30.98;;;22.48;;
22922;SDS011;11627;51.322;22.816;2023-09-18T06:33:28;20.55;;;16.67;;
22922;SDS011;11627;51.322;22.816;2023-09-18T06:35:56;21.98;;;16.17;;
22922;SDS011;11627;51.322;22.816;2023-09-18T06:38:22;24.90;;;17.77;;
22922;SDS011;11627;51.322;22.816;2023-09-18T06:40:49;19.90;;;14.98;;
22922;SDS011;11627;51.322;22.816;2023-09-18T06:43:18;20.30;;;13.93;;
22922;SDS011;11627;51.322;22.816;2023-09-18T06:45:45;17.80;;;13.98;;
22922;SDS011;11627;51.322;22.816;2023-09-18T06:48:13;16.48;;;13.27;;
22922;SDS011;11627;51.322;22.816;2023-09-18T06:50:40;19.70;;;14.18;;
22922;SDS011;11627;51.322;22.816;2023-09-18T06:53:07;16.20;;;12.98;;
22922;SDS011;11627;51.322;22.816;2023-09-18T06:55:36;20.15;;;13.57;;
22922;SDS011;11627;51.322;22.816;2023-09-18T06:58:03;16.45;;;12.32;;
22922;SDS011;11627;51.322;22.816;2023-09-18T07:00:31;15.90;;;11.32;;
22922;SDS011;11627;51.322;22.816;2023-09-18T07:03:00;15.93;;;12.73;;
22922;SDS011;11627;51.322;22.816;2023-09-18T07:05:27;15.65;;;12.25;;
22922;SDS011;11627;51.322;22.816;2023-09-18T07:07:55;16.85;;;11.02;;
22922;SDS011;11627;51.322;22.816;2023-09-18T07:10:23;16.05;;;11.65;;
22922;SDS011;11627;51.322;22.816;2023-09-18T07:12:51;14.55;;;11.40;;
22922;SDS011;11627;51.322;22.816;2023-09-18T07:15:18;13.60;;;10.77;;
22922;SDS011;11627;51.322;22.816;2023-09-18T07:17:45;15.55;;;11.30;;
22922;SDS011;11627;51.322;22.816;2023-09-18T07:20:14;14.07;;;11.25;;
22922;SDS011;11627;51.322;22.816;2023-09-18T07:22:44;51.28;;;28.80;;
22922;SDS011;11627;51.322;22.816;2023-09-18T07:25:16;33.17;;;20.08;;
22922;SDS011;11627;51.322;22.816;2023-09-18T07:27:44;27.02;;;17.65;;
22922;SDS011;11627;51.322;22.816;2023-09-18T07:30:10;23.63;;;16.35;;
22922;SDS011;11627;51.322;22.816;2023-09-18T07:32:39;16.83;;;11.27;;
22922;SDS011;11627;51.322;22.816;2023-09-18T07:35:07;14.27;;;11.63;;
22922;SDS011;11627;51.322;22.816;2023-09-18T07:37:36;16.38;;;10.98;;
22922;SDS011;11627;51.322;22.816;2023-09-18T07:40:05;16.63;;;11.80;;
22922;SDS011;11627;51.322;22.816;2023-09-18T07:42:33;14.07;;;10.95;;
22922;SDS011;11627;51.322;22.816;2023-09-18T07:45:00;20.95;;;12.05;;
22922;SDS011;11627;51.322;22.816;2023-09-18T07:47:27;15.07;;;11.40;;
22922;SDS011;11627;51.322;22.816;2023-09-18T07:49:55;14.40;;;12.25;;
22922;SDS011;11627;51.322;22.816;2023-09-18T07:52:23;14.52;;;11.63;;
22922;SDS011;11627;51.322;22.816;2023-09-18T07:54:50;14.98;;;11.93;;
22922;SDS011;11627;51.322;22.816;2023-09-18T07:57:17;13.48;;;11.00;;
22922;SDS011;11627;51.322;22.816;2023-09-18T07:59:45;15.18;;;11.18;;
22922;SDS011;11627;51.322;22.816;2023-09-18T08:02:11;14.02;;;11.15;;
22922;SDS011;11627;51.322;22.816;2023-09-18T08:04:38;15.18;;;11.20;;
22922;SDS011;11627;51.322;22.816;2023-09-18T08:07:04;13.63;;;11.32;;
22922;SDS011;11627;51.322;22.816;2023-09-18T08:09:33;15.55;;;12.30;;
22922;SDS011;11627;51.322;22.816;2023-09-18T08:12:03;14.75;;;12.10;;
22922;SDS011;11627;51.322;22.816;2023-09-18T08:14:31;16.98;;;11.10;;
22922;SDS011;11627;51.322;22.816;2023-09-18T08:17:00;12.45;;;10.45;;
22922;SDS011;11627;51.322;22.816;2023-09-18T08:19:28;15.15;;;11.43;;
22922;SDS011;11627;51.322;22.816;2023-09-18T08:21:54;12.18;;;10.48;;
22922;SDS011;11627;51.322;22.816;2023-09-18T08:24:26;13.20;;;10.80;;
22922;SDS011;11627;51.322;22.816;2023-09-18T08:26:52;15.98;;;11.02;;
22922;SDS011;11627;51.322;22.816;2023-09-18T08:29:21;16.23;;;10.13;;
22922;SDS011;11627;51.322;22.816;2023-09-18T08:31:49;11.95;;;10.73;;
22922;SDS011;11627;51.322;22.816;2023-09-18T08:34:17;13.48;;;10.48;;
22922;SDS011;11627;51.322;22.816;2023-09-18T08:36:44;17.45;;;10.43;;
22922;SDS011;11627;51.322;22.816;2023-09-18T08:39:10;14.82;;;9.68;;
22922;SDS011;11627;51.322;22.816;2023-09-18T08:41:41;11.73;;;10.32;;
22922;SDS011;11627;51.322;22.816;2023-09-18T08:44:08;12.38;;;10.50;;
22922;SDS011;11627;51.322;22.816;2023-09-18T08:46:35;13.27;;;10.23;;
22922;SDS011;11627;51.322;22.816;2023-09-18T08:49:05;11.38;;;10.15;;
22922;SDS011;11627;51.322;22.816;2023-09-18T08:51:33;10.40;;;9.38;;
22922;SDS011;11627;51.322;22.816;2023-09-18T08:54:00;12.40;;;10.20;;
22922;SDS011;11627;51.322;22.816;2023-09-18T08:56:28;13.07;;;9.52;;
22922;SDS011;11627;51.322;22.816;2023-09-18T08:58:56;14.68;;;10.70;;
22922;SDS011;11627;51.322;22.816;2023-09-18T09:01:23;13.65;;;10.32;;
22922;SDS011;11627;51.322;22.816;2023-09-18T09:03:49;15.43;;;10.15;;
22922;SDS011;11627;51.322;22.816;2023-09-18T09:06:14;12.68;;;10.57;;
22922;SDS011;11627;51.322;22.816;2023-09-18T09:08:41;11.15;;;9.63;;
22922;SDS011;11627;51.322;22.816;2023-09-18T09:11:07;10.98;;;9.77;;
22922;SDS011;11627;51.322;22.816;2023-09-18T09:13:33;10.23;;;9.13;;
22922;SDS011;11627;51.322;22.816;2023-09-18T09:15:59;11.82;;;9.95;;
22922;SDS011;11627;51.322;22.816;2023-09-18T09:18:27;10.93;;;9.65;;
22922;SDS011;11627;51.322;22.816;2023-09-18T09:20:57;14.63;;;9.55;;
22922;SDS011;11627;51.322;22.816;2023-09-18T09:23:47;11.88;;;10.20;;
22922;SDS011;11627;51.322;22.816;2023-09-18T09:26:17;11.98;;;9.05;;
22922;SDS011;11627;51.322;22.816;2023-09-18T09:28:46;10.70;;;9.63;;
22922;SDS011;11627;51.322;22.816;2023-09-18T09:31:31;12.02;;;9.63;;
22922;SDS011;11627;51.322;22.816;2023-09-18T09:33:56;13.15;;;9.20;;
22922;SDS011;11627;51.322;22.816;2023-09-18T09:36:24;10.73;;;9.15;;
22922;SDS011;11627;51.322;22.816;2023-09-18T09:38:56;10.90;;;8.52;;
22922;SDS011;11627;51.322;22.816;2023-09-18T09:41:44;10.07;;;9.00;;
22922;SDS011;11627;51.322;22.816;2023-09-18T09:44:12;12.88;;;9.35;;
22922;SDS011;11627;51.322;22.816;2023-09-18T09:46:45;12.38;;;9.55;;
22922;SDS011;11627;51.322;22.816;2023-09-18T09:49:13;16.20;;;9.52;;
22922;SDS011;11627;51.322;22.816;2023-09-18T09:51:40;10.65;;;9.27;;
22922;SDS011;11627;51.322;22.816;2023-09-18T09:54:07;11.20;;;9.05;;
22922;SDS011;11627;51.322;22.816;2023-09-18T09:56:44;12.63;;;9.88;;
22922;SDS011;11627;51.322;22.816;2023-09-18T09:59:16;11.05;;;8.95;;
22922;SDS011;11627;51.322;22.816;2023-09-18T10:01:47;11.20;;;9.93;;
22922;SDS011;11627;51.322;22.816;2023-09-18T10:04:17;12.50;;;8.95;;
22922;SDS011;11627;51.322;22.816;2023-09-18T10:06:52;9.85;;;8.85;;
22922;SDS011;11627;51.322;22.816;2023-09-18T10:09:27;10.68;;;8.50;;
22922;SDS011;11627;51.322;22.816;2023-09-18T10:11:54;9.73;;;8.73;;
22922;SDS011;11627;51.322;22.816;2023-09-18T10:14:30;10.25;;;9.07;;
22922;SDS011;11627;51.322;22.816;2023-09-18T10:17:06;9.60;;;8.55;;
22922;SDS011;11627;51.322;22.816;2023-09-18T10:22:46;12.02;;;9.20;;
22922;SDS011;11627;51.322;22.816;2023-09-18T10:25:25;10.80;;;8.77;;
22922;SDS011;11627;51.322;22.816;2023-09-18T10:27:56;12.90;;;9.00;;
22922;SDS011;11627;51.322;22.816;2023-09-18T10:30:26;12.95;;;8.88;;
22922;SDS011;11627;51.322;22.816;2023-09-18T10:32:54;9.75;;;8.60;;
22922;SDS011;11627;51.322;22.816;2023-09-18T10:35:25;11.40;;;9.02;;
22922;SDS011;11627;51.322;22.816;2023-09-18T10:37:51;10.43;;;8.63;;
22922;SDS011;11627;51.322;22.816;2023-09-18T10:40:20;12.35;;;9.38;;
22922;SDS011;11627;51.322;22.816;2023-09-18T10:42:47;11.60;;;9.02;;
22922;SDS011;11627;51.322;22.816;2023-09-18T10:45:16;10.90;;;9.02;;
22922;SDS011;11627;51.322;22.816;2023-09-18T10:47:43;12.38;;;9.63;;
22922;SDS011;11627;51.322;22.816;2023-09-18T10:50:12;10.98;;;9.88;;
22922;SDS011;11627;51.322;22.816;2023-09-18T10:52:52;10.95;;;8.85;;
22922;SDS011;11627;51.322;22.816;2023-09-18T10:55:20;10.90;;;9.70;;
22922;SDS011;11627;51.322;22.816;2023-09-18T10:57:52;18.55;;;9.45;;
22922;SDS011;11627;51.322;22.816;2023-09-18T11:00:29;12.30;;;9.77;;
22922;SDS011;11627;51.322;22.816;2023-09-18T11:05:46;14.40;;;9.43;;
22922;SDS011;11627;51.322;22.816;2023-09-18T11:11:09;12.88;;;10.15;;
22922;SDS011;11627;51.322;22.816;2023-09-18T11:16:35;11.80;;;8.80;;
22922;SDS011;11627;51.322;22.816;2023-09-18T11:19:08;12.23;;;9.30;;
22922;SDS011;11627;51.322;22.816;2023-09-18T11:21:42;12.00;;;9.15;;
22922;SDS011;11627;51.322;22.816;2023-09-18T11:26:57;10.60;;;8.82;;
22922;SDS011;11627;51.322;22.816;2023-09-18T11:29:25;10.60;;;9.10;;
22922;SDS011;11627;51.322;22.816;2023-09-18T11:31:56;9.63;;;8.63;;
22922;SDS011;11627;51.322;22.816;2023-09-18T11:34:26;10.57;;;9.10;;
22922;SDS011;11627;51.322;22.816;2023-09-18T11:37:22;9.68;;;8.68;;
22922;SDS011;11627;51.322;22.816;2023-09-18T11:39:52;12.35;;;8.65;;
22922;SDS011;11627;51.322;22.816;2023-09-18T11:42:21;11.13;;;8.73;;
22922;SDS011;11627;51.322;22.816;2023-09-18T11:44:55;9.85;;;8.18;;
22922;SDS011;11627;51.322;22.816;2023-09-18T11:47:24;10.57;;;8.57;;
22922;SDS011;11627;51.322;22.816;2023-09-18T11:52:41;9.43;;;8.02;;
22922;SDS011;11627;51.322;22.816;2023-09-18T11:55:08;9.98;;;8.23;;
22922;SDS011;11627;51.322;22.816;2023-09-18T11:57:39;13.52;;;8.40;;
22922;SDS011;11627;51.322;22.816;2023-09-18T12:00:19;9.25;;;8.35;;
22922;SDS011;11627;51.322;22.816;2023-09-18T12:02:49;10.25;;;8.65;;
22922;SDS011;11627;51.322;22.816;2023-09-18T12:05:17;8.93;;;7.68;;
22922;SDS011;11627;51.322;22.816;2023-09-18T12:07:54;9.57;;;7.78;;
22922;SDS011;11627;51.322;22.816;2023-09-18T12:10:20;10.55;;;7.40;;
22922;SDS011;11627;51.322;22.816;2023-09-18T12:12:49;12.25;;;7.40;;
22922;SDS011;11627;51.322;22.816;2023-09-18T12:15:18;9.90;;;7.38;;
22922;SDS011;11627;51.322;22.816;2023-09-18T12:17:53;9.85;;;7.07;;
22922;SDS011;11627;51.322;22.816;2023-09-18T12:20:20;8.60;;;7.45;;
22922;SDS011;11627;51.322;22.816;2023-09-18T12:22:48;10.27;;;7.93;;
22922;SDS011;11627;51.322;22.816;2023-09-18T12:25:19;7.68;;;6.88;;
22922;SDS011;11627;51.322;22.816;2023-09-18T12:27:52;10.40;;;7.00;;
22922;SDS011;11627;51.322;22.816;2023-09-18T12:30:22;9.73;;;6.80;;
22922;SDS011;11627;51.322;22.816;2023-09-18T12:32:52;8.38;;;7.05;;
22922;SDS011;11627;51.322;22.816;2023-09-18T12:35:24;8.68;;;6.78;;
22922;SDS011;11627;51.322;22.816;2023-09-18T12:37:57;8.95;;;6.57;;
22922;SDS011;11627;51.322;22.816;2023-09-18T12:40:28;8.70;;;7.30;;
22922;SDS011;11627;51.322;22.816;2023-09-18T12:42:59;9.73;;;8.00;;
22922;SDS011;11627;51.322;22.816;2023-09-18T12:45:26;9.02;;;7.80;;
22922;SDS011;11627;51.322;22.816;2023-09-18T12:47:56;10.85;;;6.85;;
22922;SDS011;11627;51.322;22.816;2023-09-18T12:50:23;7.43;;;6.63;;
22922;SDS011;11627;51.322;22.816;2023-09-18T12:53:05;8.18;;;7.35;;
22922;SDS011;11627;51.322;22.816;2023-09-18T12:55:41;6.97;;;6.28;;
22922;SDS011;11627;51.322;22.816;2023-09-18T12:58:12;10.27;;;7.47;;
22922;SDS011;11627;51.322;22.816;2023-09-18T13:00:49;7.95;;;7.05;;
22922;SDS011;11627;51.322;22.816;2023-09-18T13:03:17;7.88;;;6.82;;
22922;SDS011;11627;51.322;22.816;2023-09-18T13:05:44;12.82;;;7.13;;
22922;SDS011;11627;51.322;22.816;2023-09-18T13:08:13;9.52;;;6.93;;
22922;SDS011;11627;51.322;22.816;2023-09-18T13:10:46;8.05;;;6.68;;
22922;SDS011;11627;51.322;22.816;2023-09-18T13:13:17;10.63;;;7.32;;
22922;SDS011;11627;51.322;22.816;2023-09-18T13:15:49;8.25;;;6.82;;
22922;SDS011;11627;51.322;22.816;2023-09-18T13:18:15;8.27;;;7.20;;
22922;SDS011;11627;51.322;22.816;2023-09-18T13:20:45;8.70;;;6.95;;
22922;SDS011;11627;51.322;22.816;2023-09-18T13:23:12;9.63;;;6.32;;
22922;SDS011;11627;51.322;22.816;2023-09-18T13:25:40;9.93;;;7.15;;
22922;SDS011;11627;51.322;22.816;2023-09-18T13:28:14;6.75;;;6.05;;
22922;SDS011;11627;51.322;22.816;2023-09-18T13:30:41;9.05;;;6.43;;
22922;SDS011;11627;51.322;22.816;2023-09-18T13:33:10;7.45;;;6.53;;
22922;SDS011;11627;51.322;22.816;2023-09-18T13:35:40;7.88;;;6.25;;
22922;SDS011;11627;51.322;22.816;2023-09-18T13:38:09;7.28;;;6.32;;
22922;SDS011;11627;51.322;22.816;2023-09-18T13:40:38;9.00;;;6.88;;
22922;SDS011;11627;51.322;22.816;2023-09-18T13:43:10;8.15;;;6.50;;
22922;SDS011;11627;51.322;22.816;2023-09-18T13:45:37;8.15;;;7.13;;
22922;SDS011;11627;51.322;22.816;2023-09-18T13:48:05;9.55;;;6.53;;
22922;SDS011;11627;51.322;22.816;2023-09-18T13:50:34;10.10;;;7.03;;
22922;SDS011;11627;51.322;22.816;2023-09-18T13:53:03;9.80;;;6.88;;
22922;SDS011;11627;51.322;22.816;2023-09-18T13:55:32;11.20;;;7.13;;
22922;SDS011;11627;51.322;22.816;2023-09-18T13:57:59;9.90;;;7.38;;
22922;SDS011;11627;51.322;22.816;2023-09-18T14:00:31;10.93;;;7.03;;
22922;SDS011;11627;51.322;22.816;2023-09-18T14:02:59;8.63;;;7.13;;
22922;SDS011;11627;51.322;22.816;2023-09-18T14:05:26;12.10;;;7.10;;
22922;SDS011;11627;51.322;22.816;2023-09-18T14:07:55;8.55;;;6.88;;
22922;SDS011;11627;51.322;22.816;2023-09-18T14:10:24;11.27;;;7.63;;
22922;SDS011;11627;51.322;22.816;2023-09-18T14:12:52;9.20;;;6.90;;
22922;SDS011;11627;51.322;22.816;2023-09-18T14:15:19;8.05;;;7.22;;
22922;SDS011;11627;51.322;22.816;2023-09-18T14:17:47;9.00;;;7.63;;
22922;SDS011;11627;51.322;22.816;2023-09-18T14:20:15;9.40;;;7.50;;
22922;SDS011;11627;51.322;22.816;2023-09-18T14:22:46;11.10;;;7.90;;
22922;SDS011;11627;51.322;22.816;2023-09-18T14:25:16;10.10;;;7.85;;
22922;SDS011;11627;51.322;22.816;2023-09-18T14:27:46;11.25;;;7.70;;
22922;SDS011;11627;51.322;22.816;2023-09-18T14:30:13;9.10;;;7.97;;
22922;SDS011;11627;51.322;22.816;2023-09-18T14:32:40;10.60;;;7.35;;
22922;SDS011;11627;51.322;22.816;2023-09-18T14:35:06;8.48;;;7.38;;
22922;SDS011;11627;51.322;22.816;2023-09-18T14:37:36;9.70;;;7.55;;
22922;SDS011;11627;51.322;22.816;2023-09-18T14:40:05;11.32;;;7.95;;
22922;SDS011;11627;51.322;22.816;2023-09-18T14:42:37;8.80;;;7.90;;
22922;SDS011;11627;51.322;22.816;2023-09-18T14:45:05;9.18;;;7.35;;